Clinton, Washington
Current Conditions -  °F | °C
As of 2:53 PM on Monday 20 Oct 2014 (Local Time) from KPAE Reporting Station
Few Clouds Few Clouds  
Wind Chill: 60°   Ceiling: Unl
Heat Index: 60°   Visibility: 10mi
Dew Point: 52°   Wind: 14mph
Humidity: 75%   Direction: 170°S
Pressure: 29.76"   Gusts: NA
Location:  47.98°N, 122.36°W
Report Text: KPAE 202153Z 17012KT 10SM FEW021 16/11 A2976 RMK AO2 SLP075 T01560111
Loading
Personal Weather Stations






























Interactive Weather Map
Tropical Storm Tracking
New forecast layout! Learn more

10-Day Weather Forecast

Advertisements
Track Severe Weather on mobile